AirNav   MODERNIZE NOT PRIVATIZE ATC
 
 299 users online  

LA81 Sonlef Air Strip
Benton, Louisiana, USA


FAA INFORMATION EFFECTIVE 20 JULY 2017

Location

FAA Identifier: LA81
Lat/Long: 32-37-47.4500N / 093-39-27.4600W
32-37.790833N / 093-39.457667W
32.6298472 / -93.6576278
(estimated)
Elevation: 165 ft. / 50 m
From city: 6 miles SE of BENTON, LA
Time zone: UTC -5 (UTC -6 during Standard Time)
Zip code: 71006

Airport Operations

Airport use: Private use. Permission required prior to landing
Activation date: 04/2015
Control tower: no
ARTCC: FORT WORTH CENTER
FSS: DE RIDDER FLIGHT SERVICE STATION
Attendance: 
Wind indicator: yes
Segmented circle: no

Airport Communications

WX ASOS at DTN (7 nm SW): 118.525 (318-425-7967)
WX ASOS at SHV (14 nm SW): PHONE 318-636-5767
WX AWOS-3PT at MNE (18 nm E): 119.325 (318-371-7874)

Nearby radio navigation aids

VOR radial/distance  VOR name  Freq  Var
EICr131/11.5BELCHER VORTAC117.4007E
EMGr340/14.1ELM GROVE VORTAC111.2007E

 
NDB name  Hdg/Dist  Freq  Var  ID
MANSFIELD005/34.441404EMSD -- ... -..
ATLANTA133/39.134704EATA .- - .-

Airport Services

Runway Information

Runway 9/27

Dimensions: 2200 x 75 ft. / 671 x 23 m
Surface: turf
RUNWAY 9  RUNWAY 27
Latitude: 32-37.790833N
Longitude: 093-39.458000W
Elevation: 165.0 ft.
Traffic pattern: leftleft

Airport Ownership and Management from official FAA records

Ownership: Privately-owned
Owner: ATKINS SONNIER FAMILY LDS, LLC
PO BOX 72359
BOSSIER CITY, LA 71172-2369
Phone 318-746-7000
Manager: DONALD SONNIER
PO BOX 72359
BOSSIER CITY, LA 71172-2369
Phone 318-423-4360

Instrument Procedures

There are no published instrument procedures at LA81.

Some nearby airports with instrument procedures:

KDTN - Shreveport Downtown Airport (7 nm SW)
KBAD - Barksdale Air Force Base (8 nm S)
KSHV - Shreveport Regional Airport (14 nm SW)
KMNE - Minden Airport (18 nm E)
3F4 - Vivian Airport (23 nm NW)
 
Loc | Ops | Rwys | IFR | FBO | Links
Com | Nav | Svcs | Stats | Notes


 
Aerial photo
No photo
 
Airport distance calculator
Flying to Sonlef Air Strip? Find the distance to fly.

From to LA81

Sunrise and sunset
Times for 22-Jul-2017
 Local
(UTC-5)
 Zulu
(UTC)
Morning civil twilight05:5610:56
Sunrise06:2311:23
Sunset20:1901:19
Evening civil twilight20:4601:46

Current date and time
Zulu (UTC)  22-Jul-2017 08:57:27
Local (UTC-5)  22-Jul-2017 03:57:27
 
METAR
KDTN 
7nm SW 
220853Z AUTO 21005KT 10SM CLR 27/23 A2994 RMK AO2 SLP137 T02720233 55007
KBAD 
8nm S 
220758Z AUTO 00000KT 10SM CLR 27/23 A2993 RMK AO2 SLP136 T02740233
KSHV 
14nm SW 
220756Z 23004KT 10SM SCT280 26/24 A2994 RMK AO2 SLP133 T02610239
KMNE 
18nm E 
220835Z AUTO 00000KT 10SM CLR 25/23 A2996 RMK AO2 T02510233
TAF
KBAD 
8nm S 
220200Z 2202/2308 20009KT 9999 FEW050 SCT250 QNH2989INS BECMG 2214/2215 18012KT 9999 SCT050 BKN060 QNH2986INS BECMG 2223/2224 17009KT 9999 FEW050 QNH2987INS TX37/2221Z TN24/2212Z
KSHV 
14nm SW 
220542Z 2206/2306 21003KT P6SM SCT280 FM221600 VRB05KT P6SM SCT035 SCT250 FM221900 19006KT P6SM SCT050 SCT250 FM222100 19005KT P6SM VCTS BKN050CB FM230000 18005KT P6SM SCT250
NOTAMs
Click for the latest NOTAMs
NOTAMs are issued by the DoD/FAA and will open in a separate window not controlled by AirNav.

 

 
 

Would you like to see your business listed on this page?

 If your business provides an interesting product or service to pilots, flight crews, aircraft, or users of the Sonlef Air Strip, you should consider listing it here.  To start the listing process, click on the button below
 
Add a business
 

Other Pages about Sonlef Air Strip

Update a link
 
Copyright © AirNav, LLC. All rights reserved. Privacy Policy  Contact